Royal Prince — WCX8037 — position and weather

sailwx.info

Track history (hours):
 
Tides and Currents Weather Stations Pressure Air Temp Water Temp Dewpoint Dewpoint Depression Visibility Wind Speed Wind Dir Waves Ship Positions

Royal Prince

Owner: Golden Gate Scenic Steamship Corp, SAN FRANCISCO, CA. More information available from US FCC via Universal Licensing System and Coast Guard Vessel Documentation Center.

Last reported at 2015-May-29 23:33 UTC. Time now 2015-May-30 00:33 UTC.
Position N 37°50' W 122°25'.

Length 28 m; draft 2.3 m.

Type: Passenger vessel. MMSI: 366975760.

Date/timePositionNaut miles runAvg speedWind from/ knotsBaromVisibWave heightAir tempDewpointWater temp
2015-May-29 23:33N 37°50' W 122°25'1 1.0
2015-May-29 22:33N 37°49' W 122°25'0 0.0
2015-May-29 21:33N 37°49' W 122°25'1 1.3
2015-May-29 20:33N 37°48' W 122°23'1 1.3
2015-May-29 19:33N 37°49' W 122°25'2 2.0
2015-May-29 18:33N 37°49' W 122°27'1 0.8
2015-May-29 17:33N 37°50' W 122°28'2 0.1
2015-May-29 01:33N 37°49' W 122°25'2 2.4
2015-May-29 00:33N 37°50' W 122°28'4 4.4
2015-May-28 23:33N 37°47' W 122°23'2 2.1
2015-May-28 22:33N 37°49' W 122°25'0 0.1
2015-May-28 21:33N 37°49' W 122°25'0 0.0
2015-May-28 20:33N 37°49' W 122°25'0 0.0
2015-May-28 19:33N 37°49' W 122°25'2 2.0
2015-May-28 18:33N 37°49' W 122°27'1 0.7
2015-May-28 17:33N 37°50' W 122°27'2 2.0
2015-May-28 16:33N 37°49' W 122°25'0 0.0
2015-May-28 02:29N 37°49' W 122°25'2 1.8
2015-May-28 01:33N 37°49' W 122°27'1 0.6
2015-May-28 00:33N 37°49' W 122°27'2 1.6
2015-May-27 23:33N 37°49' W 122°25'1 0.9
2015-May-27 22:33N 37°49' W 122°25'0 0.0
2015-May-27 21:33N 37°49' W 122°25'1 0.7
2015-May-27 20:33N 37°49' W 122°25'1 0.7
2015-May-27 19:33N 37°49' W 122°25'2 1.6
2015-May-27 18:33N 37°49' W 122°27'2 1.5
2015-May-27 17:33N 37°49' W 122°29'3 0.9
2015-May-27 14:09N 37°49' W 122°25'0 0.0
2015-May-27 02:25N 37°49' W 122°25'1 1.3
2015-May-27 01:33N 37°49' W 122°26'1 1.5
2015-May-27 00:33N 37°49' W 122°28'1 0.5
2015-May-26 23:33N 37°49' W 122°28'3 2.6
2015-May-26 22:33N 37°49' W 122°24'1 0.6
2015-May-26 21:33N 37°49' W 122°25'2 1.7
2015-May-26 20:33N 37°48' W 122°23'2 1.7
2015-May-26 19:33N 37°49' W 122°25'2 1.7
2015-May-26 18:33N 37°49' W 122°27'1 1.1
2015-May-26 17:33N 37°49' W 122°28'3 2.8
2015-May-26 16:33N 37°49' W 122°25'0 0.0
2015-May-26 15:33N 37°49' W 122°25'0 0.0
2015-May-26 02:26N 37°49' W 122°25'2 2.5
2015-May-26 01:33N 37°49' W 122°28'0 0.4
2015-May-26 00:33N 37°49' W 122°27'1 1.4
2015-May-25 23:33N 37°50' W 122°26'1 1.3
2015-May-25 22:33N 37°49' W 122°25'0 0.1
2015-May-25 21:33N 37°49' W 122°25'2 2.1
2015-May-25 20:33N 37°48' W 122°23'2 2.0
2015-May-25 19:33N 37°49' W 122°25'2 2.4
2015-May-25 18:33N 37°49' W 122°28'0 0.4
2015-May-25 17:32N 37°49' W 122°28'2 2.5
2015-May-25 16:33N 37°49' W 122°25'0 0.0
2015-May-25 04:23N 37°49' W 122°25'3 3.3
2015-May-25 03:33N 37°49' W 122°28'3 2.9
2015-May-25 02:33N 37°50' W 122°25'2 1.6
2015-May-25 01:33N 37°49' W 122°25'0 0.4
2015-May-25 00:33N 37°49' W 122°24'2 2.1
2015-May-24 23:33N 37°49' W 122°27'3 3.4
2015-May-24 22:33N 37°48' W 122°23'2 2.0
2015-May-24 21:33N 37°49' W 122°25'2 1.6
2015-May-24 20:33N 37°49' W 122°23'1 1.2
2015-May-24 19:33N 37°49' W 122°25'0 0.0
2015-May-24 02:33N 37°49' W 122°25'0 0.0
2015-May-24 01:33N 37°49' W 122°25'2 1.6
2015-May-24 00:33N 37°49' W 122°27'1 0.7
2015-May-23 23:33N 37°49' W 122°28'2 2.5
2015-May-23 22:32N 37°49' W 122°24'0 0.4
2015-May-23 21:33N 37°49' W 122°25'1 0.9
2015-May-23 20:33N 37°49' W 122°24'1 0.9
2015-May-23 19:33N 37°49' W 122°25'1 1.3
2015-May-23 18:33N 37°49' W 122°27'1 1.3
2015-May-23 17:33N 37°49' W 122°28'3 2.7
2015-May-23 16:33N 37°49' W 122°25'0 0.0
2015-May-23 02:27N 37°49' W 122°25'1 1.6
2015-May-23 01:33N 37°49' W 122°27'1 1.5
2015-May-23 00:33N 37°49' W 122°28'1 1.1
2015-May-22 23:33N 37°50' W 122°27'2 2.2
2015-May-22 22:33N 37°49' W 122°24'1 0.6
2015-May-22 21:33N 37°49' W 122°25'1 0.9
2015-May-22 20:34N 37°49' W 122°24'1 0.8
2015-May-22 19:33N 37°49' W 122°25'2 1.6
2015-May-22 18:33N 37°49' W 122°27'1 0.6
2015-May-22 17:33N 37°49' W 122°27'2 2.1
2015-May-22 16:33N 37°49' W 122°25'0 0.0
2015-May-22 07:24N 37°49' W 122°25'0 0.0
2015-May-22 06:33N 37°49' W 122°25'2 1.7
2015-May-22 05:33N 37°50' W 122°24'3 3.2
2015-May-22 04:33N 37°50' W 122°28'3 2.8
2015-May-22 03:33N 37°49' W 122°25'0 0.0
2015-May-22 02:33N 37°49' W 122°25'0 0.0
2015-May-22 01:30N 37°49' W 122°25'0 0.0
2015-May-22 00:32N 37°49' W 122°25'0 0.0
2015-May-21 23:33N 37°49' W 122°25'0 0.0
2015-May-21 22:33N 37°49' W 122°25'0 0.0
2015-May-21 21:33N 37°49' W 122°25'0 0.0
2015-May-21 20:33N 37°49' W 122°25'0 0.0
2015-May-21 19:32N 37°49' W 122°25'0 0.0
2015-May-21 18:33N 37°49' W 122°25'0 0.0
2015-May-21 17:33N 37°49' W 122°25'0 0.0
2015-May-21 16:33N 37°49' W 122°25'2 0.2
2015-May-21 03:33N 37°49' W 122°28'3 3.0
2015-May-21 02:33N 37°51' W 122°25'2 2.4
2015-May-21 01:33N 37°49' W 122°25'0 0.0
2015-May-21 00:33N 37°49' W 122°25'2 1.8
2015-May-20 23:33N 37°50' W 122°27'2 2.4
2015-May-20 22:33N 37°49' W 122°24'2 2.5
2015-May-20 21:33N 37°49' W 122°27'4 3.8
2015-May-20 20:33N 37°48' W 122°23'2 2.0
2015-May-20 19:33N 37°49' W 122°25'2 0.1
2015-May-20 03:33N 37°49' W 122°27'3 3.3
2015-May-20 02:33N 37°51' W 122°25'3 2.8
2015-May-20 01:33N 37°49' W 122°25'0 0.1
2015-May-20 00:33N 37°49' W 122°25'3 3.1
2015-May-19 23:33N 37°49' W 122°29'  
Track history (hours):
 
Tides and Currents Weather Stations Pressure Air Temp Water Temp Dewpoint Dewpoint Depression Visibility Wind Speed Wind Dir Waves Ship Positions

Royal Prince

Owner: Golden Gate Scenic Steamship Corp, SAN FRANCISCO, CA. More information available from US FCC via Universal Licensing System and Coast Guard Vessel Documentation Center.

Last reported at 2015-May-29 23:33 UTC. Time now 2015-May-30 00:33 UTC.
Position N 37°50' W 122°25'.

Length 28 m; draft 2.3 m.

Type: Passenger vessel. MMSI: 366975760.

Date/timePositionNaut miles runAvg speedWind from/ knotsBaromVisibWave heightAir tempDewpointWater temp
2015-May-29 23:33N 37°50' W 122°25'1 1.0
2015-May-29 22:33N 37°49' W 122°25'0 0.0
2015-May-29 21:33N 37°49' W 122°25'1 1.3
2015-May-29 20:33N 37°48' W 122°23'1 1.3
2015-May-29 19:33N 37°49' W 122°25'2 2.0
2015-May-29 18:33N 37°49' W 122°27'1 0.8
2015-May-29 17:33N 37°50' W 122°28'2 0.1
2015-May-29 01:33N 37°49' W 122°25'2 2.4
2015-May-29 00:33N 37°50' W 122°28'4 4.4
2015-May-28 23:33N 37°47' W 122°23'2 2.1
2015-May-28 22:33N 37°49' W 122°25'0 0.1
2015-May-28 21:33N 37°49' W 122°25'0 0.0
2015-May-28 20:33N 37°49' W 122°25'0 0.0
2015-May-28 19:33N 37°49' W 122°25'2 2.0
2015-May-28 18:33N 37°49' W 122°27'1 0.7
2015-May-28 17:33N 37°50' W 122°27'2 2.0
2015-May-28 16:33N 37°49' W 122°25'0 0.0
2015-May-28 02:29N 37°49' W 122°25'2 1.8
2015-May-28 01:33N 37°49' W 122°27'1 0.6
2015-May-28 00:33N 37°49' W 122°27'2 1.6
2015-May-27 23:33N 37°49' W 122°25'1 0.9
2015-May-27 22:33N 37°49' W 122°25'0 0.0
2015-May-27 21:33N 37°49' W 122°25'1 0.7
2015-May-27 20:33N 37°49' W 122°25'1 0.7
2015-May-27 19:33N 37°49' W 122°25'2 1.6
2015-May-27 18:33N 37°49' W 122°27'2 1.5
2015-May-27 17:33N 37°49' W 122°29'3 0.9
2015-May-27 14:09N 37°49' W 122°25'0 0.0
2015-May-27 02:25N 37°49' W 122°25'1 1.3
2015-May-27 01:33N 37°49' W 122°26'1 1.5
2015-May-27 00:33N 37°49' W 122°28'1 0.5
2015-May-26 23:33N 37°49' W 122°28'3 2.6
2015-May-26 22:33N 37°49' W 122°24'1 0.6
2015-May-26 21:33N 37°49' W 122°25'2 1.7
2015-May-26 20:33N 37°48' W 122°23'2 1.7
2015-May-26 19:33N 37°49' W 122°25'2 1.7
2015-May-26 18:33N 37°49' W 122°27'1 1.1
2015-May-26 17:33N 37°49' W 122°28'3 2.8
2015-May-26 16:33N 37°49' W 122°25'0 0.0
2015-May-26 15:33N 37°49' W 122°25'0 0.0
2015-May-26 02:26N 37°49' W 122°25'2 2.5
2015-May-26 01:33N 37°49' W 122°28'0 0.4
2015-May-26 00:33N 37°49' W 122°27'1 1.4
2015-May-25 23:33N 37°50' W 122°26'1 1.3
2015-May-25 22:33N 37°49' W 122°25'0 0.1
2015-May-25 21:33N 37°49' W 122°25'2 2.1
2015-May-25 20:33N 37°48' W 122°23'2 2.0
2015-May-25 19:33N 37°49' W 122°25'2 2.4
2015-May-25 18:33N 37°49' W 122°28'0 0.4
2015-May-25 17:32N 37°49' W 122°28'2 2.5
2015-May-25 16:33N 37°49' W 122°25'0 0.0
2015-May-25 04:23N 37°49' W 122°25'3 3.3
2015-May-25 03:33N 37°49' W 122°28'3 2.9
2015-May-25 02:33N 37°50' W 122°25'2 1.6
2015-May-25 01:33N 37°49' W 122°25'0 0.4
2015-May-25 00:33N 37°49' W 122°24'2 2.1
2015-May-24 23:33N 37°49' W 122°27'3 3.4
2015-May-24 22:33N 37°48' W 122°23'2 2.0
2015-May-24 21:33N 37°49' W 122°25'2 1.6
2015-May-24 20:33N 37°49' W 122°23'1 1.2
2015-May-24 19:33N 37°49' W 122°25'0 0.0
2015-May-24 02:33N 37°49' W 122°25'0 0.0
2015-May-24 01:33N 37°49' W 122°25'2 1.6
2015-May-24 00:33N 37°49' W 122°27'1 0.7
2015-May-23 23:33N 37°49' W 122°28'2 2.5
2015-May-23 22:32N 37°49' W 122°24'0 0.4
2015-May-23 21:33N 37°49' W 122°25'1 0.9
2015-May-23 20:33N 37°49' W 122°24'1 0.9
2015-May-23 19:33N 37°49' W 122°25'1 1.3
2015-May-23 18:33N 37°49' W 122°27'1 1.3
2015-May-23 17:33N 37°49' W 122°28'3 2.7
2015-May-23 16:33N 37°49' W 122°25'0 0.0
2015-May-23 02:27N 37°49' W 122°25'1 1.6
2015-May-23 01:33N 37°49' W 122°27'1 1.5
2015-May-23 00:33N 37°49' W 122°28'1 1.1
2015-May-22 23:33N 37°50' W 122°27'2 2.2
2015-May-22 22:33N 37°49' W 122°24'1 0.6
2015-May-22 21:33N 37°49' W 122°25'1 0.9
2015-May-22 20:34N 37°49' W 122°24'1 0.8
2015-May-22 19:33N 37°49' W 122°25'2 1.6
2015-May-22 18:33N 37°49' W 122°27'1 0.6
2015-May-22 17:33N 37°49' W 122°27'2 2.1
2015-May-22 16:33N 37°49' W 122°25'0 0.0
2015-May-22 07:24N 37°49' W 122°25'0 0.0
2015-May-22 06:33N 37°49' W 122°25'2 1.7
2015-May-22 05:33N 37°50' W 122°24'3 3.2
2015-May-22 04:33N 37°50' W 122°28'3 2.8
2015-May-22 03:33N 37°49' W 122°25'0 0.0
2015-May-22 02:33N 37°49' W 122°25'0 0.0
2015-May-22 01:30N 37°49' W 122°25'0 0.0
2015-May-22 00:32N 37°49' W 122°25'0 0.0
2015-May-21 23:33N 37°49' W 122°25'0 0.0
2015-May-21 22:33N 37°49' W 122°25'0 0.0
2015-May-21 21:33N 37°49' W 122°25'0 0.0
2015-May-21 20:33N 37°49' W 122°25'0 0.0
2015-May-21 19:32N 37°49' W 122°25'0 0.0
2015-May-21 18:33N 37°49' W 122°25'0 0.0
2015-May-21 17:33N 37°49' W 122°25'0 0.0
2015-May-21 16:33N 37°49' W 122°25'2 0.2
2015-May-21 03:33N 37°49' W 122°28'3 3.0
2015-May-21 02:33N 37°51' W 122°25'2 2.4
2015-May-21 01:33N 37°49' W 122°25'0 0.0
2015-May-21 00:33N 37°49' W 122°25'2 1.8
2015-May-20 23:33N 37°50' W 122°27'2 2.4
2015-May-20 22:33N 37°49' W 122°24'2 2.5
2015-May-20 21:33N 37°49' W 122°27'4 3.8
2015-May-20 20:33N 37°48' W 122°23'2 2.0
2015-May-20 19:33N 37°49' W 122°25'2 0.1
2015-May-20 03:33N 37°49' W 122°27'3 3.3
2015-May-20 02:33N 37°51' W 122°25'3 2.8
2015-May-20 01:33N 37°49' W 122°25'0 0.1
2015-May-20 00:33N 37°49' W 122°25'3 3.1
2015-May-19 23:33N 37°49' W 122°29'  

Dump ship's entire track history